createdAt,value
2018-11-02T00:01:26.515Z,77134.08
2018-11-02T00:03:53.402Z,77143.08
2018-11-02T00:06:20.367Z,77160.09
2018-11-02T00:08:47.189Z,77166.11
2018-11-02T00:11:15.181Z,77177.11
2018-11-02T00:13:43.632Z,77183.12
2018-11-02T00:16:11.497Z,77179.11
2018-11-02T00:18:38.330Z,77174.11
2018-11-02T00:21:06.086Z,77171.11
2018-11-02T00:23:33.773Z,77171.11
2018-11-02T00:26:00.707Z,77164.10
2018-11-02T00:28:28.485Z,77163.10
2018-11-02T00:30:55.399Z,77162.10
2018-11-02T00:33:22.276Z,77167.11
2018-11-02T00:35:49.122Z,77161.09
2018-11-02T00:38:16.013Z,77158.09
2018-11-02T00:40:44.547Z,77166.11
2018-11-02T00:43:12.415Z,77171.11
2018-11-02T00:45:39.273Z,77167.11
2018-11-02T00:48:06.130Z,77167.11
2018-11-02T00:50:33.041Z,77167.11
2018-11-02T00:52:59.905Z,77173.11
2018-11-02T00:55:26.810Z,77173.11
2018-11-02T00:57:53.672Z,77180.12
2018-11-02T01:00:20.572Z,77180.12
2018-11-02T01:02:48.241Z,77180.12
2018-11-02T01:05:16.401Z,77180.12
2018-11-02T01:07:43.971Z,77185.13
2018-11-02T01:10:10.848Z,77176.11
2018-11-02T01:12:38.705Z,77177.11
2018-11-02T01:15:06.067Z,77183.12
2018-11-02T01:17:33.670Z,77191.13
2018-11-02T01:29:15.233Z,77195.13
2018-11-02T01:31:43.887Z,77211.14
2018-11-02T01:34:10.736Z,77220.16
2018-11-02T01:36:37.606Z,77223.16
2018-11-02T01:39:06.884Z,77226.16
2018-11-02T01:41:33.752Z,77223.16
2018-11-02T01:44:00.602Z,77221.16
2018-11-02T01:46:27.456Z,77226.16
2018-11-02T01:48:54.281Z,77223.16
2018-11-02T01:51:21.147Z,77227.16
2018-11-02T01:53:48.022Z,77228.16
2018-11-02T01:56:14.869Z,77230.16
2018-11-02T01:58:41.703Z,77245.17
2018-11-02T02:01:08.554Z,77245.17
2018-11-02T02:03:35.351Z,77244.17
2018-11-02T02:06:02.237Z,77245.17
2018-11-02T02:08:29.048Z,77241.17
2018-11-02T02:10:55.962Z,77231.16
2018-11-02T02:13:23.739Z,77231.16
2018-11-02T02:15:51.542Z,77243.17
2018-11-02T02:18:19.460Z,77243.17
2018-11-02T02:20:46.377Z,77242.17
2018-11-02T02:23:14.772Z,77243.17
2018-11-02T02:25:41.610Z,77251.18
2018-11-02T02:28:09.247Z,77255.19
2018-11-02T02:30:36.129Z,77258.19
2018-11-02T02:33:03.056Z,77265.20
2018-11-02T02:35:30.864Z,77258.19
2018-11-02T02:37:57.714Z,77260.19
2018-11-02T02:40:24.615Z,77261.19
2018-11-02T02:42:51.466Z,77267.20
2018-11-02T02:45:18.342Z,77265.20
2018-11-02T02:47:45.189Z,77268.20
2018-11-02T02:50:14.342Z,77268.20
2018-11-02T02:52:43.997Z,77276.20
2018-11-02T02:55:11.853Z,77278.20
2018-11-02T02:57:39.738Z,77277.20
2018-11-02T03:00:08.915Z,77264.19
2018-11-02T03:02:36.610Z,77263.19
2018-11-02T03:05:04.475Z,77266.20
2018-11-02T03:07:32.421Z,77272.20
2018-11-02T03:10:00.114Z,77274.20
2018-11-02T03:12:27.988Z,77277.20
2018-11-02T03:14:55.843Z,77273.20
2018-11-02T03:17:23.626Z,77271.20
2018-11-02T03:19:51.517Z,77272.20
2018-11-02T03:22:19.702Z,77275.20
2018-11-02T03:24:46.525Z,77280.20
2018-11-02T03:27:15.391Z,77278.20
2018-11-02T03:29:44.282Z,77282.20
2018-11-02T03:32:12.053Z,77285.21
2018-11-02T03:34:39.939Z,77279.20
2018-11-02T03:37:07.784Z,77283.21
2018-11-02T03:39:34.662Z,77289.22
2018-11-02T03:42:02.478Z,77285.21
2018-11-02T03:44:29.345Z,77283.21
2018-11-02T03:46:57.157Z,77294.22
2018-11-02T03:49:25.563Z,77299.23
2018-11-02T03:51:53.796Z,77305.23
2018-11-02T03:54:20.826Z,77295.22
2018-11-02T03:56:48.009Z,77299.23
2018-11-02T03:59:14.901Z,77308.23
2018-11-02T04:01:41.779Z,77313.23
2018-11-02T04:04:09.396Z,77319.25
2018-11-02T04:06:36.314Z,77326.25
2018-11-02T04:09:05.184Z,77324.25
2018-11-02T04:11:32.029Z,77323.25
2018-11-02T04:13:58.924Z,77322.25
2018-11-02T04:16:25.786Z,77323.25
2018-11-02T04:18:52.682Z,77332.26
2018-11-02T04:21:20.500Z,77331.26
2018-11-02T04:23:48.254Z,77337.27
2018-11-02T04:26:16.194Z,77337.27
2018-11-02T04:28:44.210Z,77330.25
2018-11-02T04:31:11.216Z,77335.27
2018-11-02T04:33:38.679Z,77333.26
2018-11-02T04:36:05.556Z,77331.26
2018-11-02T04:38:32.427Z,77335.27
2018-11-02T04:41:00.114Z,77339.27
2018-11-02T04:43:28.036Z,77343.27
2018-11-02T04:45:54.949Z,77344.27
2018-11-02T04:48:21.852Z,77351.27
2018-11-02T04:50:49.591Z,77348.27
2018-11-02T04:53:17.224Z,77349.27
2018-11-02T04:55:45.029Z,77355.28
2018-11-02T04:58:11.835Z,77355.28
2018-11-02T05:00:38.666Z,77357.28
2018-11-02T05:03:05.523Z,77361.28
2018-11-02T05:05:32.381Z,77365.29
2018-11-02T05:07:59.257Z,77365.29
2018-11-02T05:10:26.100Z,77375.30
2018-11-02T05:12:52.954Z,77376.30
2018-11-02T05:15:19.775Z,77374.30
2018-11-02T05:17:46.613Z,77377.30
2018-11-02T05:20:14.291Z,77372.30
2018-11-02T05:22:41.198Z,77373.30
2018-11-02T05:25:08.841Z,77375.30
2018-11-02T05:27:36.633Z,77374.30
2018-11-02T05:30:04.879Z,77372.30
2018-11-02T05:32:31.726Z,77371.30
2018-11-02T05:34:58.644Z,77380.30
2018-11-02T05:37:25.490Z,77380.30
2018-11-02T05:39:53.280Z,77383.30
2018-11-02T05:42:20.157Z,77385.31
2018-11-02T05:44:48.294Z,77383.30
2018-11-02T05:47:15.244Z,77389.31
2018-11-02T05:49:41.973Z,77387.31
2018-11-02T05:52:09.948Z,77385.31
2018-11-02T05:54:37.037Z,77385.31
2018-11-02T05:57:04.988Z,77391.31
2018-11-02T05:59:32.672Z,77395.31
2018-11-02T06:02:00.533Z,77405.33
2018-11-02T06:04:28.397Z,77409.33
2018-11-02T06:06:56.177Z,77411.33
2018-11-02T06:09:23.835Z,77415.34
2018-11-02T06:11:51.660Z,77415.34
2018-11-02T06:14:19.529Z,77418.34
2018-11-02T06:16:47.498Z,77428.34
2018-11-02T06:19:15.529Z,77435.36
2018-11-02T06:21:44.301Z,77438.36
2018-11-02T06:24:11.235Z,77444.36
2018-11-02T06:26:38.112Z,77446.37
2018-11-02T06:29:05.943Z,77444.36
2018-11-02T06:31:33.727Z,77445.36
2018-11-02T06:34:00.603Z,77449.37
2018-11-02T06:36:27.461Z,77457.38
2018-11-02T06:38:54.325Z,77461.38
2018-11-02T06:41:22.200Z,77461.38
2018-11-02T06:43:50.285Z,77456.38
2018-11-02T06:46:17.862Z,77460.38
2018-11-02T06:48:45.565Z,77451.38
2018-11-02T06:51:12.419Z,77457.38
2018-11-02T06:53:40.189Z,77458.38
2018-11-02T06:56:07.977Z,77469.39
2018-11-02T06:58:34.839Z,77475.39
2018-11-02T07:01:02.602Z,77476.39
2018-11-02T07:03:29.579Z,77482.41
2018-11-02T07:05:58.683Z,77490.41
2018-11-02T07:08:25.937Z,77492.41
2018-11-02T07:10:52.968Z,77486.41
2018-11-02T07:13:20.089Z,77484.41
2018-11-02T07:15:48.079Z,77496.42
2018-11-02T07:18:15.154Z,77496.42
2018-11-02T07:20:42.160Z,77498.42
2018-11-02T07:23:09.083Z,77499.42
2018-11-02T07:25:36.109Z,77507.42
2018-11-02T07:28:03.142Z,77513.44
2018-11-02T07:30:30.210Z,77509.43
2018-11-02T07:32:58.102Z,77503.42
2018-11-02T07:35:26.023Z,77507.42
2018-11-02T07:37:52.934Z,77514.44
2018-11-02T07:40:23.774Z,77522.44
2018-11-02T07:42:50.821Z,77526.45
2018-11-02T07:45:18.817Z,77518.44
2018-11-02T07:47:46.942Z,77521.44
2018-11-02T07:50:14.741Z,77517.44
2018-11-02T07:52:42.766Z,77521.44
2018-11-02T07:55:12.041Z,77527.45
2018-11-02T07:57:39.222Z,77527.45
2018-11-02T08:00:10.016Z,77529.45
2018-11-02T08:02:37.195Z,77535.45
2018-11-02T08:05:04.271Z,77534.45
2018-11-02T08:07:32.102Z,77529.45
2018-11-02T08:09:59.098Z,77528.45
2018-11-02T08:12:26.138Z,77529.45
2018-11-02T08:14:53.969Z,77535.45
2018-11-02T08:17:21.890Z,77533.45
2018-11-02T08:19:49.689Z,77537.45
2018-11-02T08:22:17.418Z,77536.45
2018-11-02T08:24:45.289Z,77537.45
2018-11-02T08:27:13.953Z,77537.45
2018-11-02T08:29:40.959Z,77538.45
2018-11-02T08:32:08.090Z,77547.47
2018-11-02T08:34:35.877Z,77550.47
2018-11-02T08:37:03.907Z,77557.48
2018-11-02T08:39:31.857Z,77554.47
2018-11-02T08:41:58.911Z,77556.48
2018-11-02T08:44:25.993Z,77556.48
2018-11-02T08:46:53.057Z,77569.48
2018-11-02T08:49:20.344Z,77573.49
2018-11-02T08:51:47.479Z,77576.50
2018-11-02T08:54:14.966Z,77573.49
2018-11-02T08:56:42.173Z,77583.50
2018-11-02T08:59:09.596Z,77588.51
2018-11-02T09:01:37.557Z,77585.51
2018-11-02T09:04:04.809Z,77572.49
2018-11-02T09:06:31.860Z,77565.48
2018-11-02T09:08:59.616Z,77568.48
2018-11-02T09:11:27.437Z,77571.48
2018-11-02T09:13:55.226Z,77579.50
2018-11-02T09:16:22.130Z,77580.50
2018-11-02T09:18:49.128Z,77580.50
2018-11-02T09:21:16.116Z,77589.52
2018-11-02T09:23:44.226Z,77590.52
2018-11-02T09:26:11.239Z,77591.52
2018-11-02T09:28:39.063Z,77589.52
2018-11-02T09:31:06.661Z,77598.52
2018-11-02T09:33:34.545Z,77594.52
2018-11-02T09:36:01.469Z,77597.52
2018-11-02T09:38:29.349Z,77604.52
2018-11-02T09:40:57.210Z,77600.52
2018-11-02T09:43:24.157Z,77593.52
2018-11-02T09:45:51.207Z,77595.52
2018-11-02T09:48:18.090Z,77599.52
2018-11-02T09:50:46.051Z,77603.52
2018-11-02T09:53:14.694Z,77615.53
2018-11-02T09:55:41.611Z,77618.54
2018-11-02T09:58:08.619Z,77621.55
2018-11-02T10:00:35.512Z,77618.54
2018-11-02T10:03:03.260Z,77628.55
2018-11-02T10:05:30.158Z,77636.56
2018-11-02T10:07:58.036Z,77631.55
2018-11-02T10:10:24.945Z,77627.55
2018-11-02T10:12:51.820Z,77631.55
2018-11-02T10:15:18.705Z,77630.55
2018-11-02T10:17:45.684Z,77635.55
2018-11-02T10:20:12.706Z,77632.55
2018-11-02T10:22:39.679Z,77625.55
2018-11-02T10:25:06.764Z,77619.54
2018-11-02T10:27:33.659Z,77631.55
2018-11-02T10:30:00.824Z,77625.55
2018-11-02T10:32:27.788Z,77621.55
2018-11-02T10:34:54.714Z,77628.55
2018-11-02T10:37:21.758Z,77627.55
2018-11-02T10:39:48.651Z,77627.55
2018-11-02T10:42:15.654Z,77625.55
2018-11-02T10:44:44.387Z,77627.55
2018-11-02T10:47:12.258Z,77624.55
2018-11-02T10:49:39.996Z,77626.55
2018-11-02T10:52:07.787Z,77621.55
2018-11-02T10:54:34.921Z,77619.54
2018-11-02T10:57:02.735Z,77626.55
2018-11-02T10:59:29.625Z,77631.55
2018-11-02T11:02:03.154Z,77638.56
2018-11-02T11:04:30.059Z,77637.56
2018-11-02T11:06:56.959Z,77651.58
2018-11-02T11:09:24.889Z,77642.56
2018-11-02T11:11:52.725Z,77649.57
2018-11-02T11:14:20.606Z,77643.56
2018-11-02T11:16:48.476Z,77635.55
2018-11-02T11:19:16.354Z,77634.55
2018-11-02T11:21:44.108Z,77634.55
2018-11-02T11:24:11.047Z,77631.55
2018-11-02T11:26:38.431Z,77618.54
2018-11-02T11:29:06.314Z,77611.53
2018-11-02T11:31:34.178Z,77606.53
2018-11-02T11:34:01.089Z,77598.52
2018-11-02T11:36:27.970Z,77597.52
2018-11-02T11:38:54.938Z,77598.52
2018-11-02T11:41:21.953Z,77601.52
2018-11-02T11:43:49.717Z,77605.53
2018-11-02T11:46:16.627Z,77606.53
2018-11-02T11:48:44.564Z,77599.52
2018-11-02T11:51:11.375Z,77603.52
2018-11-02T11:53:38.262Z,77601.52
2018-11-02T11:56:05.665Z,77603.52
2018-11-02T11:58:32.605Z,77609.53
2018-11-02T12:00:59.510Z,77605.53
2018-11-02T12:03:26.411Z,77605.53
2018-11-02T12:05:54.171Z,77600.52
2018-11-02T12:08:21.034Z,77605.53
2018-11-02T12:10:47.908Z,77611.53
2018-11-02T12:13:14.836Z,77612.53
2018-11-02T12:15:41.862Z,77613.53
2018-11-02T12:18:08.745Z,77608.53
2018-11-02T12:20:35.676Z,77611.53
2018-11-02T12:23:02.949Z,77611.53
2018-11-02T12:25:29.852Z,77607.53
2018-11-02T12:27:56.758Z,77613.53
2018-11-02T12:30:23.608Z,77611.53
2018-11-02T12:32:50.826Z,77615.53
2018-11-02T12:35:19.075Z,77618.54
2018-11-02T12:37:47.001Z,77625.55
2018-11-02T12:40:18.010Z,77629.55
2018-11-02T12:42:46.962Z,77627.55
2018-11-02T12:45:16.949Z,77624.55
2018-11-02T12:47:44.749Z,77625.55
2018-11-02T12:50:16.594Z,77623.55
2018-11-02T12:52:46.016Z,77629.55
2018-11-02T12:55:14.132Z,77641.56
2018-11-02T12:57:41.447Z,77635.55
2018-11-02T13:00:11.769Z,77642.56
2018-11-02T13:02:38.871Z,77647.56
2018-11-02T13:05:07.176Z,77639.56
2018-11-02T13:07:34.050Z,77644.56
2018-11-02T13:10:01.981Z,77641.56
2018-11-02T13:12:29.818Z,77653.58
2018-11-02T13:14:57.543Z,77659.58
2018-11-02T13:17:24.538Z,77653.58
2018-11-02T13:19:52.286Z,77669.59
2018-11-02T13:22:19.268Z,77665.59
2018-11-02T13:24:46.092Z,77672.59
2018-11-02T13:27:13.801Z,77670.59
2018-11-02T13:29:40.715Z,77679.60
2018-11-02T13:32:08.535Z,77681.61
2018-11-02T13:34:35.680Z,77685.61
2018-11-02T13:37:02.696Z,77686.61
2018-11-02T13:39:29.599Z,77686.61
2018-11-02T13:41:56.509Z,77685.61
2018-11-02T13:44:24.267Z,77685.61
2018-11-02T13:46:51.223Z,77683.61
2018-11-02T13:49:18.122Z,77685.61
2018-11-02T13:51:45.868Z,77681.61
2018-11-02T13:54:14.380Z,77674.59
2018-11-02T13:56:42.110Z,77671.59
2018-11-02T13:59:09.218Z,77666.59
2018-11-02T14:01:37.104Z,77672.59
2018-11-02T14:04:04.262Z,77659.58
2018-11-02T14:06:32.143Z,77657.58
2018-11-02T14:09:00.010Z,77658.58
2018-11-02T14:11:27.948Z,77660.58
2018-11-02T14:13:54.881Z,77653.58
2018-11-02T14:16:22.538Z,77661.58
2018-11-02T14:18:50.411Z,77661.58
2018-11-02T14:21:18.174Z,77663.59
2018-11-02T14:23:45.931Z,77672.59
2018-11-02T14:26:14.554Z,77667.59
2018-11-02T14:28:42.422Z,77676.60
2018-11-02T14:31:09.333Z,77686.61
2018-11-02T14:33:37.205Z,77700.63
2018-11-02T14:36:05.027Z,77701.63
2018-11-02T14:38:32.918Z,77708.63
2018-11-02T14:41:00.901Z,77715.64
2018-11-02T14:43:28.740Z,77706.63
2018-11-02T14:45:56.545Z,77701.63
2018-11-02T14:48:24.391Z,77693.62
2018-11-02T14:50:51.853Z,77695.63
2018-11-02T14:53:18.747Z,77693.62
2018-11-02T14:55:45.605Z,77690.61
2018-11-02T14:58:12.530Z,77698.63
2018-11-02T15:00:40.343Z,77706.63
2018-11-02T15:03:07.595Z,77706.63
2018-11-02T15:05:34.507Z,77710.64
2018-11-02T15:08:01.365Z,77711.64
2018-11-02T15:10:29.221Z,77714.64
2018-11-02T15:12:56.063Z,77719.64
2018-11-02T15:15:22.996Z,77717.64
2018-11-02T15:17:49.858Z,77719.64
2018-11-02T15:20:16.768Z,77725.66
2018-11-02T15:22:45.105Z,77737.66
2018-11-02T15:25:11.969Z,77735.66
2018-11-02T15:27:38.839Z,77739.66
2018-11-02T15:30:07.435Z,77739.66
2018-11-02T15:32:34.264Z,77756.69
2018-11-02T15:35:01.063Z,77759.69
2018-11-02T15:37:27.915Z,77761.69
2018-11-02T15:39:54.800Z,77758.69
2018-11-02T15:42:21.682Z,77752.68
2018-11-02T15:44:48.576Z,77750.67
2018-11-02T15:47:15.512Z,77758.69
2018-11-02T15:49:44.045Z,77762.69
2018-11-02T15:52:11.896Z,77764.69
2018-11-02T15:54:39.582Z,77766.69
2018-11-02T15:57:06.475Z,77768.70
2018-11-02T15:59:34.274Z,77761.69
2018-11-02T16:02:02.157Z,77763.69
2018-11-02T16:04:30.040Z,77771.70
2018-11-02T16:06:58.010Z,77771.70
2018-11-02T16:09:25.812Z,77764.69
2018-11-02T16:11:53.653Z,77758.69
2018-11-02T16:14:20.629Z,77756.69
2018-11-02T16:16:48.420Z,77761.69
2018-11-02T16:19:16.230Z,77759.69
2018-11-02T16:21:44.717Z,77759.69
2018-11-02T16:24:12.406Z,77759.69
2018-11-02T16:26:40.598Z,77756.69
2018-11-02T16:29:08.343Z,77759.69
2018-11-02T16:31:36.068Z,77760.69
2018-11-02T16:34:03.965Z,77763.69
2018-11-02T16:36:31.379Z,77774.70
2018-11-02T16:38:59.235Z,77777.70
2018-11-02T16:41:26.921Z,77782.71
2018-11-02T16:43:54.743Z,77785.72
2018-11-02T16:46:22.596Z,77788.72
2018-11-02T16:48:49.565Z,77799.73
2018-11-02T16:51:17.322Z,77806.73
2018-11-02T16:53:45.140Z,77811.74
2018-11-02T16:56:12.024Z,77813.75
2018-11-02T16:58:39.866Z,77815.75
2018-11-02T17:01:06.716Z,77819.75
2018-11-02T17:03:34.619Z,77819.75
2018-11-02T17:06:01.583Z,77817.75
2018-11-02T17:08:29.359Z,77825.76
2018-11-02T17:10:56.268Z,77821.75
2018-11-02T17:13:24.129Z,77821.75
2018-11-02T17:15:51.099Z,77824.76
2018-11-02T17:18:19.112Z,77826.76
2018-11-02T17:20:46.931Z,77830.77
2018-11-02T17:23:14.563Z,77831.77
2018-11-02T17:25:42.333Z,77839.77
2018-11-02T17:28:10.151Z,77835.77
2018-11-02T17:30:38.005Z,77839.77
2018-11-02T17:33:05.878Z,77847.78
2018-11-02T17:35:33.692Z,77851.78
2018-11-02T17:38:01.336Z,77858.80
2018-11-02T17:40:28.277Z,77857.80
2018-11-02T17:42:56.029Z,77859.80
2018-11-02T17:45:22.930Z,77857.80
2018-11-02T17:47:50.855Z,77865.80
2018-11-02T17:50:18.688Z,77858.80
2018-11-02T17:52:46.356Z,77863.80
2018-11-02T17:55:15.192Z,77849.78
2018-11-02T17:57:42.030Z,77853.79
2018-11-02T18:00:16.039Z,77861.80
2018-11-02T18:02:44.449Z,77866.80
2018-11-02T18:05:11.658Z,77867.80
2018-11-02T18:07:38.516Z,77871.81
2018-11-02T18:10:07.220Z,77877.81
2018-11-02T18:12:35.092Z,77890.83
2018-11-02T18:15:02.860Z,77891.83
2018-11-02T18:17:30.562Z,77890.83
2018-11-02T18:19:57.484Z,77884.83
2018-11-02T18:22:25.306Z,77890.83
2018-11-02T18:24:52.107Z,77889.83
2018-11-02T18:27:20.452Z,77885.83
2018-11-02T18:29:47.370Z,77882.82
2018-11-02T18:32:15.194Z,77892.83
2018-11-02T18:34:42.109Z,77898.84
2018-11-02T18:37:08.963Z,77896.84
2018-11-02T18:39:35.829Z,77910.85
2018-11-02T18:42:02.699Z,77916.86
2018-11-02T18:44:29.569Z,77922.86
2018-11-02T18:46:56.426Z,77928.88
2018-11-02T18:49:23.332Z,77922.86
2018-11-02T18:51:50.185Z,77926.87
2018-11-02T18:54:17.069Z,77930.88
2018-11-02T18:56:44.893Z,77939.88
2018-11-02T18:59:11.790Z,77942.89
2018-11-02T19:01:38.773Z,77941.89
2018-11-02T19:04:05.623Z,77951.89
2018-11-02T19:06:32.474Z,77952.90
2018-11-02T19:08:59.460Z,77948.89
2018-11-02T19:11:27.288Z,77943.89
2018-11-02T19:13:54.134Z,77953.90
2018-11-02T19:16:22.010Z,77949.89
2018-11-02T19:18:48.867Z,77953.90
2018-11-02T19:21:16.723Z,77958.91
2018-11-02T19:23:44.700Z,77965.91
2018-11-02T19:26:11.575Z,77971.92
2018-11-02T19:28:38.468Z,77976.92
2018-11-02T19:31:05.370Z,77983.94
2018-11-02T19:33:32.301Z,77986.94
2018-11-02T19:35:59.986Z,77990.94
2018-11-02T19:38:26.917Z,77985.94
2018-11-02T19:40:53.933Z,77988.94
2018-11-02T19:43:20.833Z,77985.94
2018-11-02T19:45:48.552Z,77989.94
2018-11-02T19:48:16.266Z,77985.94
2018-11-02T19:50:45.013Z,77991.94
2018-11-02T19:53:11.749Z,77987.94
2018-11-02T19:55:39.433Z,77993.95
2018-11-02T19:58:07.328Z,77990.94
2018-11-02T20:00:35.025Z,77989.94
2018-11-02T20:03:01.955Z,77991.94
2018-11-02T20:05:28.880Z,77996.95
2018-11-02T20:07:56.645Z,78009.97
2018-11-02T20:10:23.517Z,78000.95
2018-11-02T20:12:50.406Z,78005.95
2018-11-02T20:15:17.731Z,78001.95
2018-11-02T20:17:46.549Z,78003.95
2018-11-02T20:20:14.506Z,77998.95
2018-11-02T20:22:41.439Z,78013.97
2018-11-02T20:25:10.092Z,78014.97
2018-11-02T20:27:37.908Z,78010.97
2018-11-02T20:30:05.918Z,78011.97
2018-11-02T20:32:32.971Z,78011.97
2018-11-02T20:34:59.913Z,78015.97
2018-11-02T20:37:26.823Z,78015.97
2018-11-02T20:39:53.823Z,78014.97
2018-11-02T20:42:21.600Z,78016.97
2018-11-02T20:44:48.627Z,78021.98
2018-11-02T20:47:15.508Z,78028.98
2018-11-02T20:49:42.358Z,78030.98
2018-11-02T20:52:09.607Z,78027.98
2018-11-02T20:54:36.501Z,78027.98
2018-11-02T20:57:03.441Z,78020.98
2018-11-02T20:59:30.449Z,78023.98
2018-11-02T21:01:57.465Z,78038.00
2018-11-02T21:04:24.420Z,78035.99
2018-11-02T21:06:52.513Z,78035.99
2018-11-02T21:09:19.662Z,78033.98
2018-11-02T21:11:46.276Z,78031.98
2018-11-02T21:14:14.027Z,78035.99
2018-11-02T21:16:40.860Z,78032.98
2018-11-02T21:19:07.737Z,78036.99
2018-11-02T21:21:34.610Z,78033.98
2018-11-02T21:24:01.545Z,78024.98
2018-11-02T21:26:29.877Z,78024.98
2018-11-02T21:28:56.765Z,78021.98
2018-11-02T21:31:23.605Z,78023.98
2018-11-02T21:33:50.514Z,78031.98
2018-11-02T21:36:17.317Z,78038.00
2018-11-02T21:38:45.238Z,78043.00
2018-11-02T21:41:12.100Z,78052.02
2018-11-02T21:43:39.010Z,78047.00
2018-11-02T21:46:05.881Z,78041.00
2018-11-02T21:48:32.741Z,78044.00
2018-11-02T21:50:59.605Z,78056.02
2018-11-02T21:53:27.412Z,78053.02
2018-11-02T21:55:54.282Z,78056.02
2018-11-02T21:58:21.186Z,78053.02
2018-11-02T22:00:48.004Z,78047.00
2018-11-02T22:03:14.897Z,78041.00
2018-11-02T22:05:41.806Z,78048.00
2018-11-02T22:08:09.531Z,78052.02
2018-11-02T22:10:37.270Z,78060.02
2018-11-02T22:13:04.259Z,78057.02
2018-11-02T22:15:31.130Z,78060.02
2018-11-02T22:17:58.002Z,78063.02
2018-11-02T22:20:24.865Z,78058.02
2018-11-02T22:22:51.743Z,78060.02
2018-11-02T22:25:18.612Z,78055.02
2018-11-02T22:27:46.381Z,78056.02
2018-11-02T22:30:14.650Z,78061.02
2018-11-02T22:32:41.686Z,78064.02
2018-11-02T22:35:08.642Z,78054.02
2018-11-02T22:37:35.495Z,78048.00
2018-11-02T22:40:03.511Z,78040.00
2018-11-02T22:42:30.439Z,78044.00
2018-11-02T22:44:57.416Z,78046.00
2018-11-02T22:47:25.085Z,78052.02
2018-11-02T22:49:51.980Z,78061.02
2018-11-02T22:52:18.934Z,78066.03
2018-11-02T22:54:46.724Z,78069.03
2018-11-02T22:57:15.334Z,78077.05
2018-11-02T22:59:44.023Z,78074.04
2018-11-02T23:02:11.172Z,78064.02
2018-11-02T23:04:38.162Z,78068.03
2018-11-02T23:07:05.107Z,78067.03
2018-11-02T23:09:31.968Z,78069.03
2018-11-02T23:11:59.882Z,78061.02
2018-11-02T23:14:26.712Z,78053.02
2018-11-02T23:16:54.441Z,78054.02
2018-11-02T23:19:21.395Z,78050.01
2018-11-02T23:21:49.284Z,78061.02
2018-11-02T23:24:17.123Z,78060.02
2018-11-02T23:26:45.041Z,78061.02
2018-11-02T23:29:11.896Z,78056.02
2018-11-02T23:31:39.754Z,78058.02
2018-11-02T23:34:06.656Z,78059.02
2018-11-02T23:36:34.575Z,78060.02
2018-11-02T23:39:02.516Z,78064.02
2018-11-02T23:41:30.385Z,78069.03
2018-11-02T23:43:58.231Z,78076.04
2018-11-02T23:46:25.101Z,78066.03
2018-11-02T23:48:52.905Z,78070.03
2018-11-02T23:51:19.808Z,78073.03
2018-11-02T23:53:47.642Z,78078.05
2018-11-02T23:56:15.495Z,78078.05
2018-11-02T23:58:43.481Z,78079.05
